Budapest Lorinc, Hungary

12:49 PM CEST on July 24, 2016 (GMT +0200)
Budapest | | Change Station

Elev 417 ft 47.42 °N, 19.21 °E | Updated 9 minutes ago

Clear
Clear
92.8 °F
Feels Like 97 °F
N
0.7
Wind Variable Wind from South
Gusts 2.2 mph

Today
High -- | Low -- °F
--% Chance of Precip.
Yesterday
High -- | Low -- °F
Precip. -- in
Pressure 30.04 in
Visibility -9999.0 miles
Clouds
Heat Index 97 °F
Dew Point 68 °F
Humidity 45%
Rainfall 0.00 in
Snow Depth Not available.
5:11 AM 8:27 PM
Waning Gibbous, 77% visible
METAR LHBP 241030Z 08007KT 040V120 CAVOK 28/18 Q1017 NOSIG
Pressure 30.04 in
Visibility -9999.0 miles
Clouds
Heat Index 97 °F
Dew Point 68 °F
Humidity 45%
Rainfall 0.00 in
Snow Depth Not available.
5:11 AM 8:27 PM
Waning Gibbous, 77% visible
METAR LHBP 241030Z 08007KT 040V120 CAVOK 28/18 Q1017 NOSIG

10-Day Weather Forecast

×

Almanac

Astronomy

Jul. 24, 2016 Rise Set
Actual Time
Civil Twilight
Nautical Twilight
Astronomical Twilight
Moon
Length of Visible Light
Length of Day
Tomorrow will be .
, % of the Moon is Illuminated

Today's Extremes

Country Highs Country Lows

Community

WunderPhotos

Upload Photos

1,927,039 photos uploaded!

WunderBlog® & News

Nearby

Air Quality

  Air Quality AQ Index Pollutant
Not available.

Snow Depth

Station Depth Elevation

Earthquake Activity

City Distance Mag. Time & Date
Minimum magnitude displayed is 2.5.

Coastal Water Temperatures

Place Temperature

Stations

Nearby Weather Stations

Station Location Temp. Windchill Dew Point Humidity Wind Precip. Elev Updated Type